createdAt,value
2019-05-21T00:00:49.576Z,995.82
2019-05-21T00:01:49.021Z,995.86
2019-05-21T00:02:53.460Z,995.85
2019-05-21T00:03:51.961Z,995.85
2019-05-21T00:04:51.457Z,995.94
2019-05-21T00:05:51.054Z,995.85
2019-05-21T00:06:50.694Z,995.89
2019-05-21T00:07:50.301Z,995.85
2019-05-21T00:08:49.853Z,995.88
2019-05-21T00:09:49.369Z,995.87
2019-05-21T00:10:53.755Z,995.85
2019-05-21T00:11:52.303Z,995.82
2019-05-21T00:12:56.695Z,995.91
2019-05-21T00:13:55.177Z,995.88
2019-05-21T00:14:54.861Z,995.80
2019-05-21T00:15:59.050Z,995.87
2019-05-21T00:16:57.537Z,995.80
2019-05-21T00:17:57.131Z,995.84
2019-05-21T00:18:56.666Z,995.88
2019-05-21T00:19:56.248Z,995.82
2019-05-21T00:20:55.878Z,995.87
2019-05-21T00:21:55.289Z,995.85
2019-05-21T00:22:54.854Z,995.88
2019-05-21T00:23:54.301Z,995.88
2019-05-21T00:24:53.910Z,995.85
2019-05-21T00:25:53.519Z,995.82
2019-05-21T00:26:53.071Z,995.85
2019-05-21T00:28:00.825Z,995.85
2019-05-21T00:28:59.137Z,995.92
2019-05-21T00:29:58.668Z,995.88
2019-05-21T00:30:58.282Z,995.89
2019-05-21T00:31:57.720Z,995.91
2019-05-21T00:32:57.305Z,995.93
2019-05-21T00:33:56.809Z,995.90
2019-05-21T00:34:56.393Z,995.94
2019-05-21T00:35:55.960Z,995.83
2019-05-21T00:36:55.661Z,995.90
2019-05-21T00:37:54.981Z,995.86
2019-05-21T00:38:54.441Z,995.80
2019-05-21T00:39:53.983Z,995.91
2019-05-21T00:40:53.476Z,995.91
2019-05-21T00:41:53.125Z,995.80
2019-05-21T00:42:52.607Z,995.89
2019-05-21T00:43:57.027Z,995.91
2019-05-21T00:44:55.356Z,995.90
2019-05-21T00:45:54.897Z,995.90
2019-05-21T00:46:54.404Z,995.94
2019-05-21T00:47:53.912Z,995.95
2019-05-21T00:48:53.454Z,995.93
2019-05-21T00:49:53.000Z,995.99
2019-05-21T00:50:52.484Z,996.00
2019-05-21T00:52:05.082Z,995.93
2019-05-21T00:52:51.540Z,995.96
2019-05-21T00:53:51.191Z,995.89
2019-05-21T00:54:50.729Z,995.93
2019-05-21T00:55:50.375Z,995.97
2019-05-21T00:56:49.916Z,995.93
2019-05-21T00:57:54.211Z,995.94
2019-05-21T00:58:52.822Z,995.98
2019-05-21T00:59:52.317Z,995.98
2019-05-21T01:00:51.850Z,995.89
2019-05-21T01:01:51.322Z,995.98
2019-05-21T01:02:51.018Z,995.98
2019-05-21T01:03:50.468Z,995.95
2019-05-21T01:05:00.310Z,995.98
2019-05-21T01:05:57.183Z,995.99
2019-05-21T01:06:55.562Z,996.03
2019-05-21T01:07:54.860Z,995.92
2019-05-21T01:08:59.333Z,995.89
2019-05-21T01:09:57.857Z,995.93
2019-05-21T01:10:57.315Z,996.00
2019-05-21T01:11:56.824Z,995.98
2019-05-21T01:12:56.287Z,995.94
2019-05-21T01:13:55.875Z,995.93
2019-05-21T01:14:55.457Z,995.90
2019-05-21T01:15:59.768Z,995.86
2019-05-21T01:16:58.247Z,995.87
2019-05-21T01:17:57.796Z,995.95
2019-05-21T01:18:57.337Z,995.92
2019-05-21T01:19:56.983Z,995.93
2019-05-21T01:20:56.528Z,995.86
2019-05-21T01:21:56.007Z,995.83
2019-05-21T01:22:55.581Z,996.01
2019-05-21T01:23:55.167Z,995.91
2019-05-21T01:24:54.702Z,995.92
2019-05-21T01:25:54.241Z,995.92
2019-05-21T01:26:53.755Z,995.89
2019-05-21T01:27:53.460Z,995.89
2019-05-21T01:28:57.640Z,995.85
2019-05-21T01:30:00.983Z,995.89
2019-05-21T01:31:04.210Z,995.89
2019-05-21T01:32:03.065Z,995.79
2019-05-21T01:33:02.169Z,995.88
2019-05-21T01:34:01.661Z,995.85
2019-05-21T01:35:16.098Z,995.89
2019-05-21T01:36:00.833Z,995.85
2019-05-21T01:37:00.363Z,995.94
2019-05-21T01:37:59.927Z,995.91
2019-05-21T01:38:59.482Z,995.86
2019-05-21T01:39:59.061Z,995.88
2019-05-21T01:40:58.620Z,995.86
2019-05-21T01:41:58.133Z,995.81
2019-05-21T01:42:57.725Z,995.87
2019-05-21T01:43:57.326Z,995.83
2019-05-21T01:44:56.839Z,995.87
2019-05-21T01:45:56.528Z,995.83
2019-05-21T01:46:58.938Z,995.89
2019-05-21T01:47:57.786Z,995.88
2019-05-21T01:49:02.151Z,995.87
2019-05-21T01:50:00.583Z,995.84
2019-05-21T01:51:00.182Z,995.79
2019-05-21T01:51:59.730Z,995.86
2019-05-21T01:52:59.451Z,995.83
2019-05-21T01:53:58.854Z,995.85
2019-05-21T01:55:03.061Z,995.83
2019-05-21T01:56:01.589Z,995.79
2019-05-21T01:57:01.023Z,995.84
2019-05-21T01:58:00.779Z,995.83
2019-05-21T01:59:00.251Z,995.81
2019-05-21T01:59:59.757Z,995.81
2019-05-21T02:00:59.409Z,995.83
2019-05-21T02:01:58.939Z,995.82
2019-05-21T02:02:58.475Z,995.83
2019-05-21T02:03:58.019Z,995.71
2019-05-21T02:04:57.511Z,995.79
2019-05-21T02:05:57.117Z,995.77
2019-05-21T02:06:56.657Z,995.78
2019-05-21T02:07:56.273Z,995.82
2019-05-21T02:08:55.842Z,995.81
2019-05-21T02:09:55.324Z,995.77
2019-05-21T02:10:54.810Z,995.73
2019-05-21T02:11:54.381Z,995.73
2019-05-21T02:12:53.959Z,995.76
2019-05-21T02:13:53.572Z,995.73
2019-05-21T02:14:53.059Z,995.69
2019-05-21T02:15:52.676Z,995.83
2019-05-21T02:16:52.215Z,995.72
2019-05-21T02:17:51.735Z,995.67
2019-05-21T02:18:51.367Z,995.76
2019-05-21T02:19:55.767Z,995.71
2019-05-21T02:20:54.301Z,995.72
2019-05-21T02:21:53.751Z,995.74
2019-05-21T02:22:53.238Z,995.73
2019-05-21T02:23:52.805Z,995.69
2019-05-21T02:24:52.486Z,995.79
2019-05-21T02:25:52.007Z,995.71
2019-05-21T02:26:51.572Z,995.67
2019-05-21T02:27:51.107Z,995.65
2019-05-21T02:28:50.641Z,995.73
2019-05-21T02:29:50.208Z,995.64
2019-05-21T02:30:49.820Z,995.68
2019-05-21T02:31:49.430Z,995.73
2019-05-21T02:32:49.010Z,995.74
2019-05-21T02:33:48.570Z,995.74
2019-05-21T02:34:48.182Z,995.81
2019-05-21T02:35:54.360Z,995.76
2019-05-21T02:36:47.280Z,995.74
2019-05-21T02:37:46.836Z,995.75
2019-05-21T02:38:46.351Z,995.67
2019-05-21T02:39:50.658Z,995.72
2019-05-21T02:40:49.252Z,995.82
2019-05-21T02:41:48.765Z,995.72
2019-05-21T02:42:48.317Z,995.74
2019-05-21T02:43:47.852Z,995.74
2019-05-21T02:44:47.471Z,995.73
2019-05-21T02:46:46.477Z,995.74
2019-05-21T02:47:46.018Z,995.76
2019-05-21T02:48:45.549Z,995.83
2019-05-21T02:49:45.121Z,995.81
2019-05-21T02:50:44.574Z,995.70
2019-05-21T02:51:44.155Z,995.74
2019-05-21T02:52:43.702Z,995.70
2019-05-21T02:53:43.153Z,995.70
2019-05-21T02:54:42.786Z,995.77
2019-05-21T02:55:42.308Z,995.75
2019-05-21T02:56:41.735Z,995.72
2019-05-21T02:57:41.352Z,995.84
2019-05-21T02:58:40.755Z,995.71
2019-05-21T02:59:40.253Z,995.76
2019-05-21T03:00:44.600Z,995.71
2019-05-21T03:01:43.130Z,995.71
2019-05-21T03:02:42.635Z,995.72
2019-05-21T03:03:46.969Z,995.66
2019-05-21T03:04:45.460Z,995.68
2019-05-21T03:05:44.966Z,995.69
2019-05-21T03:06:44.462Z,995.69
2019-05-21T03:07:48.945Z,995.68
2019-05-21T03:08:47.472Z,995.67
2019-05-21T03:09:46.931Z,995.69
2019-05-21T03:10:46.475Z,995.63
2019-05-21T03:11:46.081Z,995.64
2019-05-21T03:12:45.694Z,995.61
2019-05-21T03:13:45.255Z,995.54
2019-05-21T03:14:44.778Z,995.62
2019-05-21T03:15:44.337Z,995.57
2019-05-21T03:16:43.936Z,995.65
2019-05-21T03:17:43.518Z,995.65
2019-05-21T03:18:47.811Z,995.57
2019-05-21T03:19:54.631Z,995.61
2019-05-21T03:20:52.877Z,995.62
2019-05-21T03:21:52.427Z,995.60
2019-05-21T03:22:51.958Z,995.55
2019-05-21T03:23:51.466Z,995.61
2019-05-21T03:24:50.988Z,995.68
2019-05-21T03:25:50.553Z,995.58
2019-05-21T03:26:50.101Z,995.74
2019-05-21T03:27:49.689Z,995.72
2019-05-21T03:28:49.363Z,995.85
2019-05-21T03:29:48.793Z,995.73
2019-05-21T03:30:48.380Z,995.82
2019-05-21T03:31:47.921Z,995.76
2019-05-21T03:32:47.405Z,995.84
2019-05-21T03:33:46.969Z,995.87
2019-05-21T03:34:46.452Z,995.93
2019-05-21T03:35:50.829Z,995.99
2019-05-21T03:36:49.587Z,995.88
2019-05-21T03:37:49.044Z,995.87
2019-05-21T03:38:48.531Z,995.90
2019-05-21T03:39:48.134Z,995.91
2019-05-21T03:40:52.439Z,995.94
2019-05-21T03:41:50.908Z,995.94
2019-05-21T03:42:50.429Z,995.90
2019-05-21T03:43:50.093Z,996.08
2019-05-21T03:44:59.920Z,996.05
2019-05-21T03:45:49.220Z,995.97
2019-05-21T03:46:48.816Z,996.02
2019-05-21T03:47:48.262Z,996.02
2019-05-21T03:48:47.756Z,995.89
2019-05-21T03:49:47.445Z,996.02
2019-05-21T03:50:46.981Z,995.98
2019-05-21T03:51:46.577Z,996.04
2019-05-21T03:52:49.044Z,995.92
2019-05-21T03:53:47.806Z,995.99
2019-05-21T03:54:47.330Z,995.98
2019-05-21T03:55:46.834Z,996.01
2019-05-21T03:56:46.329Z,995.96
2019-05-21T03:57:45.814Z,995.89
2019-05-21T03:58:45.345Z,995.95
2019-05-21T03:59:44.882Z,996.00
2019-05-21T04:00:44.419Z,995.97
2019-05-21T04:01:43.922Z,995.98
2019-05-21T04:02:43.445Z,995.93
2019-05-21T04:03:42.962Z,995.96
2019-05-21T04:04:42.528Z,996.00
2019-05-21T04:05:42.077Z,995.98
2019-05-21T04:06:51.357Z,995.93
2019-05-21T04:07:41.242Z,995.88
2019-05-21T04:08:40.791Z,995.89
2019-05-21T04:09:40.255Z,995.87
2019-05-21T04:10:39.564Z,995.81
2019-05-21T04:11:39.353Z,995.78
2019-05-21T04:12:38.936Z,995.58
2019-05-21T04:13:38.439Z,995.72
2019-05-21T04:14:37.949Z,995.50
2019-05-21T04:15:37.498Z,995.59
2019-05-21T04:16:37.081Z,995.53
2019-05-21T04:17:36.603Z,995.50
2019-05-21T04:18:35.937Z,995.49
2019-05-21T04:19:35.374Z,995.45
2019-05-21T04:20:34.746Z,995.42
2019-05-21T04:21:34.385Z,995.50
2019-05-21T04:22:33.895Z,995.41
2019-05-21T04:23:33.249Z,995.49
2019-05-21T04:24:32.679Z,995.38
2019-05-21T04:25:32.132Z,995.41
2019-05-21T04:26:39.804Z,995.45
2019-05-21T04:27:37.959Z,995.47
2019-05-21T04:28:37.523Z,995.58
2019-05-21T04:29:37.121Z,995.59
2019-05-21T04:30:36.536Z,995.58
2019-05-21T04:31:36.294Z,995.70
2019-05-21T04:32:35.726Z,995.80
2019-05-21T04:33:35.077Z,995.72
2019-05-21T04:34:34.509Z,995.85
2019-05-21T04:35:34.132Z,995.81
2019-05-21T04:36:33.613Z,995.95
2019-05-21T04:37:33.093Z,995.86
2019-05-21T04:38:32.580Z,996.01
2019-05-21T04:39:31.932Z,996.02
2019-05-21T04:40:31.327Z,995.95
2019-05-21T04:41:30.737Z,995.90
2019-05-21T04:43:29.660Z,995.89
2019-05-21T04:44:29.328Z,995.90
2019-05-21T04:45:28.598Z,995.95
2019-05-21T04:46:28.025Z,996.04
2019-05-21T04:47:27.442Z,995.94
2019-05-21T04:48:26.914Z,995.82
2019-05-21T04:49:26.324Z,995.92
2019-05-21T04:50:25.776Z,995.87
2019-05-21T04:51:28.215Z,995.90
2019-05-21T04:52:26.996Z,995.83
2019-05-21T04:53:26.300Z,995.83
2019-05-21T04:54:26.038Z,995.81
2019-05-21T04:55:25.373Z,995.87
2019-05-21T04:56:24.809Z,995.88
2019-05-21T04:57:24.239Z,995.85
2019-05-21T04:58:23.632Z,995.88
2019-05-21T04:59:23.071Z,995.83
2019-05-21T05:00:22.632Z,995.82
2019-05-21T05:01:22.070Z,995.81
2019-05-21T05:02:21.537Z,995.78
2019-05-21T05:03:21.058Z,995.81
2019-05-21T05:04:21.970Z,995.75
2019-05-21T05:05:20.110Z,995.82
2019-05-21T05:06:19.598Z,995.84
2019-05-21T05:07:28.207Z,995.85
2019-05-21T05:08:18.718Z,995.92
2019-05-21T05:09:18.042Z,995.86
2019-05-21T05:10:22.426Z,995.86
2019-05-21T05:11:20.745Z,995.92
2019-05-21T05:12:25.291Z,995.93
2019-05-21T05:13:23.786Z,995.77
2019-05-21T05:14:28.055Z,995.92
2019-05-21T05:15:26.553Z,995.83
2019-05-21T05:16:26.085Z,995.96
2019-05-21T05:17:25.629Z,995.94
2019-05-21T05:18:25.195Z,995.97
2019-05-21T05:19:24.656Z,995.93
2019-05-21T05:20:24.191Z,995.91
2019-05-21T05:21:23.764Z,996.00
2019-05-21T05:22:28.147Z,996.05
2019-05-21T05:23:26.680Z,996.16
2019-05-21T05:24:26.132Z,996.05
2019-05-21T05:25:25.699Z,996.15
2019-05-21T05:26:30.093Z,996.10
2019-05-21T05:27:28.596Z,996.20
2019-05-21T05:28:28.039Z,996.17
2019-05-21T05:29:27.607Z,996.22
2019-05-21T05:30:27.102Z,996.26
2019-05-21T05:31:26.519Z,996.19
2019-05-21T05:32:26.178Z,996.22
2019-05-21T05:33:25.734Z,996.25
2019-05-21T05:34:25.237Z,996.29
2019-05-21T05:35:24.848Z,996.28
2019-05-21T05:36:24.316Z,996.18
2019-05-21T05:37:42.808Z,996.33
2019-05-21T05:38:27.120Z,996.32
2019-05-21T05:39:26.599Z,996.29
2019-05-21T05:40:26.147Z,996.37
2019-05-21T05:41:25.570Z,996.37
2019-05-21T05:42:25.111Z,996.36
2019-05-21T05:43:24.640Z,996.40
2019-05-21T05:44:23.942Z,996.32
2019-05-21T05:45:23.552Z,996.38
2019-05-21T05:46:23.023Z,996.28
2019-05-21T05:47:22.533Z,996.37
2019-05-21T05:48:22.038Z,996.42
2019-05-21T05:49:21.589Z,996.38
2019-05-21T05:50:21.014Z,996.31
2019-05-21T05:51:20.508Z,996.31
2019-05-21T05:52:20.012Z,996.22
2019-05-21T05:53:19.447Z,996.27
2019-05-21T05:54:18.928Z,996.27
2019-05-21T05:55:18.476Z,996.25
2019-05-21T05:56:17.917Z,996.21
2019-05-21T05:57:17.400Z,996.29
2019-05-21T05:58:16.878Z,996.28
2019-05-21T05:59:16.597Z,996.23
2019-05-21T06:00:16.052Z,996.24
2019-05-21T06:01:15.549Z,996.27
2019-05-21T06:02:15.059Z,996.24
2019-05-21T06:03:14.592Z,996.24
2019-05-21T06:04:14.098Z,996.32
2019-05-21T06:05:13.606Z,996.21
2019-05-21T06:06:13.114Z,996.31
2019-05-21T06:07:12.587Z,996.25
2019-05-21T06:08:12.065Z,996.30
2019-05-21T06:09:11.599Z,996.32
2019-05-21T06:10:11.138Z,996.31
2019-05-21T06:11:10.611Z,996.31
2019-05-21T06:12:10.086Z,996.32
2019-05-21T06:13:09.602Z,996.17
2019-05-21T06:14:09.038Z,996.12
2019-05-21T06:15:08.551Z,996.15
2019-05-21T06:16:08.159Z,996.12
2019-05-21T06:17:07.624Z,996.15
2019-05-21T06:18:06.996Z,996.14
2019-05-21T06:19:06.644Z,996.16
2019-05-21T06:20:06.122Z,996.22
2019-05-21T06:21:05.625Z,996.15
2019-05-21T06:22:05.168Z,996.22
2019-05-21T06:23:04.633Z,996.10
2019-05-21T06:24:04.185Z,996.11
2019-05-21T06:25:03.712Z,996.17
2019-05-21T06:26:03.416Z,996.08
2019-05-21T06:27:02.725Z,996.07
2019-05-21T06:28:02.201Z,996.17
2019-05-21T06:29:01.674Z,996.12
2019-05-21T06:30:01.171Z,996.20
2019-05-21T06:31:00.733Z,996.21
2019-05-21T06:32:00.175Z,996.29
2019-05-21T06:32:59.614Z,996.31
2019-05-21T06:33:59.096Z,996.26
2019-05-21T06:34:58.630Z,996.36
2019-05-21T06:35:58.140Z,996.33
2019-05-21T06:36:57.692Z,996.25
2019-05-21T06:37:56.943Z,996.41
2019-05-21T06:38:56.565Z,996.28
2019-05-21T06:39:56.110Z,996.29
2019-05-21T06:40:55.740Z,996.36
2019-05-21T06:41:55.143Z,996.30
2019-05-21T06:42:54.608Z,996.38
2019-05-21T06:43:54.082Z,996.29
2019-05-21T06:44:53.585Z,996.26
2019-05-21T06:45:53.073Z,996.32
2019-05-21T06:46:52.530Z,996.38
2019-05-21T06:47:51.924Z,996.29
2019-05-21T06:48:51.508Z,996.33
2019-05-21T06:49:51.029Z,996.33
2019-05-21T06:50:50.519Z,996.25
2019-05-21T06:51:50.060Z,996.25
2019-05-21T06:52:49.648Z,996.33
2019-05-21T06:53:49.166Z,996.37
2019-05-21T06:54:48.620Z,996.41
2019-05-21T06:55:48.122Z,996.45
2019-05-21T06:56:47.690Z,996.44
2019-05-21T06:57:47.270Z,996.44
2019-05-21T06:58:46.694Z,996.42
2019-05-21T06:59:46.286Z,996.44
2019-05-21T07:00:46.937Z,996.27
2019-05-21T07:01:46.687Z,996.40
2019-05-21T07:02:45.974Z,996.36
2019-05-21T07:03:45.517Z,996.42
2019-05-21T07:04:44.845Z,996.42
2019-05-21T07:05:58.524Z,996.41
2019-05-21T07:06:44.900Z,996.39
2019-05-21T07:07:43.436Z,996.37
2019-05-21T07:08:42.990Z,996.48
2019-05-21T07:09:42.517Z,996.48
2019-05-21T07:10:42.115Z,996.49
2019-05-21T07:11:41.642Z,996.39
2019-05-21T07:12:41.333Z,996.49
2019-05-21T07:13:40.864Z,996.48
2019-05-21T07:14:40.356Z,996.59
2019-05-21T07:15:39.969Z,996.57
2019-05-21T07:16:39.458Z,996.60
2019-05-21T07:17:38.967Z,996.65
2019-05-21T07:18:41.365Z,996.67
2019-05-21T07:19:38.000Z,996.64
2019-05-21T07:20:37.475Z,996.68
2019-05-21T07:21:37.022Z,996.57
2019-05-21T07:22:36.544Z,996.52
2019-05-21T07:23:36.061Z,996.64
2019-05-21T07:24:35.483Z,996.70
2019-05-21T07:25:34.992Z,996.65
2019-05-21T07:26:34.500Z,996.71
2019-05-21T07:27:33.951Z,996.74
2019-05-21T07:28:33.459Z,996.76
2019-05-21T07:29:32.949Z,996.82
2019-05-21T07:30:32.512Z,996.80
2019-05-21T07:31:32.060Z,996.77
2019-05-21T07:32:31.489Z,996.78
2019-05-21T07:33:30.974Z,996.75
2019-05-21T07:34:30.538Z,996.75
2019-05-21T07:35:30.021Z,996.86
2019-05-21T07:36:29.453Z,996.70
2019-05-21T07:37:28.838Z,996.86
2019-05-21T07:38:28.514Z,996.81
2019-05-21T07:39:27.946Z,996.71
2019-05-21T07:40:27.452Z,996.79
2019-05-21T07:41:26.883Z,996.71
2019-05-21T07:42:26.423Z,996.79
2019-05-21T07:43:25.899Z,996.84
2019-05-21T07:44:25.365Z,996.76
2019-05-21T07:45:24.822Z,996.83
2019-05-21T07:46:24.327Z,996.73
2019-05-21T07:47:23.813Z,996.72
2019-05-21T07:48:23.081Z,996.82
2019-05-21T07:49:22.698Z,996.85
2019-05-21T07:50:22.233Z,996.78
2019-05-21T07:51:21.842Z,996.74
2019-05-21T07:52:21.253Z,996.76
2019-05-21T07:53:20.776Z,996.84
2019-05-21T07:54:20.295Z,996.88
2019-05-21T07:55:19.924Z,996.88
2019-05-21T07:56:19.399Z,996.93
2019-05-21T07:57:18.867Z,996.95
2019-05-21T07:58:18.363Z,996.93
2019-05-21T07:59:17.886Z,996.99
2019-05-21T08:00:17.370Z,997.03
2019-05-21T08:01:16.853Z,996.99
2019-05-21T08:02:16.423Z,997.04
2019-05-21T08:03:15.870Z,997.05
2019-05-21T08:04:15.434Z,997.00
2019-05-21T08:05:15.126Z,997.03
2019-05-21T08:06:15.192Z,997.05
2019-05-21T08:07:14.071Z,997.00
2019-05-21T08:08:13.512Z,997.07
2019-05-21T08:09:14.651Z,997.07
2019-05-21T08:10:12.641Z,997.08
2019-05-21T08:11:12.111Z,997.14
2019-05-21T08:12:36.862Z,997.12
2019-05-21T08:13:11.133Z,997.17
2019-05-21T08:14:10.648Z,997.15
2019-05-21T08:15:10.228Z,997.17
2019-05-21T08:16:09.705Z,997.15
2019-05-21T08:17:09.205Z,997.14
2019-05-21T08:18:08.680Z,997.19
2019-05-21T08:19:08.200Z,997.12
2019-05-21T08:20:09.910Z,997.19
2019-05-21T08:21:07.212Z,997.19
2019-05-21T08:22:06.774Z,997.28
2019-05-21T08:23:06.244Z,997.31
2019-05-21T08:24:05.726Z,997.26
2019-05-21T08:25:05.317Z,997.31
2019-05-21T08:26:04.903Z,997.24
2019-05-21T08:27:04.450Z,997.30
2019-05-21T08:28:03.906Z,997.30
2019-05-21T08:29:03.472Z,997.34
2019-05-21T08:30:02.957Z,997.38
2019-05-21T08:31:02.582Z,997.39
2019-05-21T08:32:01.967Z,997.37
2019-05-21T08:33:01.471Z,997.39
2019-05-21T08:34:03.914Z,997.39
2019-05-21T08:35:02.806Z,997.46
2019-05-21T08:36:02.185Z,997.41
2019-05-21T08:37:01.576Z,997.41
2019-05-21T08:38:01.118Z,997.44
2019-05-21T08:39:00.597Z,997.50
2019-05-21T08:40:00.027Z,997.54
2019-05-21T08:40:59.754Z,997.65
2019-05-21T08:42:58.742Z,997.64
2019-05-21T08:43:58.210Z,997.61
2019-05-21T08:44:57.757Z,997.67
2019-05-21T08:45:57.296Z,997.67
2019-05-21T08:46:56.765Z,997.66
2019-05-21T08:47:56.236Z,997.70
2019-05-21T08:48:55.718Z,997.59
2019-05-21T08:49:55.231Z,997.67
2019-05-21T08:50:54.720Z,997.77
2019-05-21T08:51:54.336Z,997.73
2019-05-21T08:52:53.870Z,997.71
2019-05-21T08:53:53.363Z,997.76
2019-05-21T08:54:56.110Z,997.68
2019-05-21T08:55:52.367Z,997.70
2019-05-21T08:56:51.930Z,997.73
2019-05-21T08:58:06.559Z,997.73
2019-05-21T08:58:51.065Z,997.83
2019-05-21T08:59:50.463Z,997.89
2019-05-21T09:00:49.986Z,997.83
2019-05-21T09:01:49.502Z,997.90
2019-05-21T09:02:48.935Z,997.87
2019-05-21T09:03:48.485Z,997.87
2019-05-21T09:04:47.969Z,997.86
2019-05-21T09:05:47.494Z,997.92
2019-05-21T09:06:46.989Z,997.95
2019-05-21T09:07:52.625Z,997.86
2019-05-21T09:08:46.059Z,997.82
2019-05-21T09:09:51.424Z,997.91
2019-05-21T09:10:45.170Z,997.92
2019-05-21T09:11:44.725Z,997.93
2019-05-21T09:12:44.233Z,997.93
2019-05-21T09:13:43.748Z,997.94
2019-05-21T09:14:43.303Z,997.94
2019-05-21T09:15:42.781Z,997.98
2019-05-21T09:16:42.263Z,998.03
2019-05-21T09:17:41.788Z,998.02
2019-05-21T09:18:41.283Z,998.01
2019-05-21T09:19:40.868Z,998.04
2019-05-21T09:20:40.337Z,997.99
2019-05-21T09:21:39.916Z,998.07
2019-05-21T09:22:39.367Z,998.10
2019-05-21T09:23:41.834Z,998.03
2019-05-21T09:24:40.557Z,998.13
2019-05-21T09:25:40.012Z,998.08
2019-05-21T09:26:39.607Z,998.06
2019-05-21T09:27:39.068Z,998.14
2019-05-21T09:28:38.566Z,998.16
2019-05-21T09:29:38.116Z,998.18
2019-05-21T09:30:37.668Z,998.25
2019-05-21T09:31:37.154Z,998.20
2019-05-21T09:32:36.793Z,998.15
2019-05-21T09:33:36.235Z,998.15
2019-05-21T09:34:47.999Z,998.22
2019-05-21T09:35:35.286Z,998.19
2019-05-21T09:36:34.895Z,998.17
2019-05-21T09:37:34.377Z,998.21
2019-05-21T09:38:33.830Z,998.24
2019-05-21T09:39:33.357Z,998.24
2019-05-21T09:40:32.836Z,998.23
2019-05-21T09:41:32.350Z,998.15
2019-05-21T09:42:31.860Z,998.20
2019-05-21T09:43:31.423Z,998.26
2019-05-21T09:44:30.899Z,998.31
2019-05-21T09:45:30.508Z,998.31
2019-05-21T09:46:29.971Z,998.34
2019-05-21T09:47:29.495Z,998.34
2019-05-21T09:48:29.060Z,998.39
2019-05-21T09:49:28.547Z,998.42
2019-05-21T09:50:28.062Z,998.37
2019-05-21T09:51:27.628Z,998.37
2019-05-21T09:52:27.112Z,998.31
2019-05-21T09:53:26.649Z,998.40
2019-05-21T09:54:26.132Z,998.47
2019-05-21T09:55:25.604Z,998.44
2019-05-21T09:56:25.098Z,998.44
2019-05-21T09:57:24.650Z,998.49
2019-05-21T09:58:24.074Z,998.45
2019-05-21T09:59:23.593Z,998.47
2019-05-21T10:00:23.200Z,998.51
2019-05-21T10:01:22.760Z,998.54
2019-05-21T10:02:22.270Z,998.55
2019-05-21T10:03:21.630Z,998.48
2019-05-21T10:04:21.178Z,998.49
2019-05-21T10:05:20.699Z,998.51
2019-05-21T10:06:20.213Z,998.62
2019-05-21T10:07:37.647Z,998.52
2019-05-21T10:08:19.237Z,998.54
2019-05-21T10:09:18.802Z,998.53
2019-05-21T10:10:18.366Z,998.62
2019-05-21T10:11:17.887Z,998.58
2019-05-21T10:12:17.361Z,998.56
2019-05-21T10:13:16.892Z,998.53
2019-05-21T10:14:16.480Z,998.61
2019-05-21T10:15:15.915Z,998.67
2019-05-21T10:16:15.387Z,998.72
2019-05-21T10:17:14.883Z,998.65
2019-05-21T10:18:14.389Z,998.68
2019-05-21T10:19:13.906Z,998.72
2019-05-21T10:20:13.358Z,998.68
2019-05-21T10:21:12.908Z,998.68
2019-05-21T10:22:12.427Z,998.77
2019-05-21T10:23:11.827Z,998.76
2019-05-21T10:24:11.332Z,998.70
2019-05-21T10:25:10.782Z,998.69
2019-05-21T10:26:10.286Z,998.81
2019-05-21T10:27:09.913Z,998.82
2019-05-21T10:28:09.572Z,998.82
2019-05-21T10:29:08.938Z,998.85
2019-05-21T10:30:08.414Z,998.81
2019-05-21T10:31:07.908Z,998.85
2019-05-21T10:32:07.461Z,998.78
2019-05-21T10:33:06.919Z,998.84
2019-05-21T10:34:06.534Z,998.86
2019-05-21T10:35:06.268Z,998.85
2019-05-21T10:36:05.537Z,998.85
2019-05-21T10:37:05.196Z,998.91
2019-05-21T10:38:04.608Z,998.89
2019-05-21T10:39:04.126Z,998.82
2019-05-21T10:40:03.612Z,998.80
2019-05-21T10:41:03.117Z,998.93
2019-05-21T10:42:02.615Z,998.88
2019-05-21T10:43:01.967Z,998.87
2019-05-21T10:44:01.561Z,998.92
2019-05-21T10:45:00.871Z,998.87
2019-05-21T10:46:00.515Z,998.94
2019-05-21T10:46:59.847Z,998.95
2019-05-21T10:47:59.343Z,998.97
2019-05-21T10:48:58.861Z,999.10
2019-05-21T10:49:58.256Z,998.96
2019-05-21T10:50:57.711Z,998.97
2019-05-21T10:51:57.162Z,998.97
2019-05-21T10:52:56.864Z,999.01
2019-05-21T10:53:56.198Z,999.12
2019-05-21T10:54:55.745Z,999.04
2019-05-21T10:55:55.202Z,999.10
2019-05-21T10:56:54.581Z,999.11
2019-05-21T10:57:54.095Z,999.10
2019-05-21T10:58:53.454Z,999.15
2019-05-21T10:59:53.123Z,999.16
2019-05-21T11:00:52.609Z,999.18
2019-05-21T11:01:52.123Z,999.14
2019-05-21T11:02:51.622Z,999.21
2019-05-21T11:03:51.120Z,999.21
2019-05-21T11:04:50.665Z,999.15
2019-05-21T11:05:50.174Z,999.21
2019-05-21T11:06:49.696Z,999.25
2019-05-21T11:07:49.153Z,999.28
2019-05-21T11:08:48.677Z,999.34
2019-05-21T11:09:48.335Z,999.25
2019-05-21T11:10:47.805Z,999.40
2019-05-21T11:11:47.330Z,999.39
2019-05-21T11:12:46.798Z,999.40
2019-05-21T11:13:46.137Z,999.35
2019-05-21T11:14:45.579Z,999.38
2019-05-21T11:15:45.004Z,999.39
2019-05-21T11:16:44.420Z,999.40
2019-05-21T11:17:53.565Z,999.45
2019-05-21T11:18:43.471Z,999.39
2019-05-21T11:19:42.882Z,999.42
2019-05-21T11:20:42.333Z,999.43
2019-05-21T11:21:41.798Z,999.51
2019-05-21T11:22:41.316Z,999.47
2019-05-21T11:23:40.758Z,999.51
2019-05-21T11:24:40.228Z,999.51
2019-05-21T11:25:39.734Z,999.57
2019-05-21T11:26:39.154Z,999.56
2019-05-21T11:27:38.594Z,999.50
2019-05-21T11:28:38.068Z,999.58
2019-05-21T11:29:37.490Z,999.58
2019-05-21T11:30:37.075Z,999.59
2019-05-21T11:31:36.403Z,999.65
2019-05-21T11:32:36.011Z,999.56
2019-05-21T11:33:35.544Z,999.56
2019-05-21T11:34:35.124Z,999.63
2019-05-21T11:35:36.220Z,999.62
2019-05-21T11:36:34.200Z,999.68
2019-05-21T11:37:33.666Z,999.68
2019-05-21T11:38:39.870Z,999.71
2019-05-21T11:39:32.636Z,999.67
2019-05-21T11:40:32.998Z,999.73
2019-05-21T11:41:33.781Z,999.71
2019-05-21T11:42:33.030Z,999.69
2019-05-21T11:43:32.394Z,999.64
2019-05-21T11:44:31.926Z,999.74
2019-05-21T11:45:34.370Z,999.74
2019-05-21T11:46:33.042Z,999.75
2019-05-21T11:47:32.507Z,999.73
2019-05-21T11:48:34.930Z,999.77
2019-05-21T11:49:33.560Z,999.75
2019-05-21T11:50:33.029Z,999.83
2019-05-21T11:51:35.546Z,999.83
2019-05-21T11:52:34.298Z,999.86
2019-05-21T11:53:33.802Z,999.79
2019-05-21T11:54:33.263Z,999.85
2019-05-21T11:55:32.844Z,999.87
2019-05-21T11:56:32.139Z,999.85
2019-05-21T11:57:31.792Z,999.87
2019-05-21T11:58:31.360Z,999.92
2019-05-21T11:59:30.827Z,999.90
2019-05-21T12:00:30.425Z,999.94
2019-05-21T12:01:29.963Z,1000.00
2019-05-21T12:02:29.567Z,999.94
2019-05-21T12:03:28.938Z,999.93
2019-05-21T12:04:28.508Z,999.91
2019-05-21T12:05:28.118Z,999.88
2019-05-21T12:06:27.621Z,999.89
2019-05-21T12:07:27.076Z,999.91
2019-05-21T12:08:26.577Z,999.94
2019-05-21T12:09:26.054Z,1000.00
2019-05-21T12:10:25.665Z,1000.04
2019-05-21T12:11:25.066Z,1000.07
2019-05-21T12:12:24.639Z,1000.04
2019-05-21T12:13:24.222Z,1000.07
2019-05-21T12:14:23.707Z,1000.07
2019-05-21T12:15:23.160Z,1000.13
2019-05-21T12:16:22.736Z,1000.14
2019-05-21T12:17:22.233Z,1000.21
2019-05-21T12:18:21.759Z,1000.11
2019-05-21T12:19:21.200Z,1000.07
2019-05-21T12:20:35.352Z,1000.04
2019-05-21T12:21:20.187Z,1000.12
2019-05-21T12:22:19.519Z,1000.15
2019-05-21T12:23:19.139Z,1000.16
2019-05-21T12:24:18.606Z,1000.15
2019-05-21T12:25:18.096Z,1000.15
2019-05-21T12:26:17.628Z,1000.20
2019-05-21T12:27:17.084Z,1000.22